AXB225 VOHS-VOMM
Flight info
| Callsign | AXB225 |
|---|---|
| Flight time | N/A |
| Altitude | 33000 |
| Route | DCT HIA V4 MMV DCT |
| Aircraft | B737/M-NIL/C |
Departure
| Time | 2026-04-25 10:45 |
|---|---|
| Airport | Rajiv Gandhi International Airport (VOHS) |
Arrival
| Time | N/A |
|---|---|
| Airport | Chennai International Airport (VOMM) |
| Time | Latitude | Longitude | Altitude | Speed | Heading |
|---|---|---|---|---|---|
| 2026-04-25 10:17 | 17.23401 | 78.42874 | 2003 ft | 0 kts | 360° |
| 2026-04-25 10:33 | 17.23396 | 78.42874 | 2003 ft | 2 kts | 0° |
| 2026-04-25 10:34 | 17.23381 | 78.42874 | 2004 ft | 2 kts | 360° |
| 2026-04-25 10:34 | 17.23366 | 78.42874 | 2004 ft | 2 kts | 0° |
| 2026-04-25 10:34 | 17.23351 | 78.42874 | 2004 ft | 2 kts | 360° |
| 2026-04-25 10:34 | 17.23338 | 78.42874 | 2004 ft | 1 kts | 19° |
| 2026-04-25 10:35 | 17.23329 | 78.42866 | 2004 ft | 1 kts | 79° |
| 2026-04-25 10:35 | 17.23329 | 78.42859 | 2004 ft | 0 kts | 91° |
| 2026-04-25 10:35 | 17.23329 | 78.42856 | 2004 ft | 0 kts | 89° |
| 2026-04-25 10:37 | 17.23329 | 78.42857 | 2004 ft | 0 kts | 89° |
| 2026-04-25 10:37 | 17.23329 | 78.42865 | 2004 ft | 2 kts | 88° |
| 2026-04-25 10:38 | 17.23330 | 78.42889 | 2005 ft | 4 kts | 88° |
| 2026-04-25 10:38 | 17.23331 | 78.42929 | 2007 ft | 6 kts | 89° |
| 2026-04-25 10:38 | 17.23332 | 78.42985 | 2009 ft | 8 kts | 89° |
| 2026-04-25 10:38 | 17.23334 | 78.43055 | 2012 ft | 10 kts | 89° |
| 2026-04-25 10:39 | 17.23323 | 78.43135 | 2015 ft | 11 kts | 122° |
| 2026-04-25 10:39 | 17.23257 | 78.43165 | 2016 ft | 1 kts | 175° |
| 2026-04-25 10:39 | 17.23251 | 78.43165 | 2016 ft | 1 kts | 177° |
| 2026-04-25 10:40 | 17.23217 | 78.43166 | 2016 ft | 7 kts | 178° |
| 2026-04-25 10:40 | 17.23142 | 78.43170 | 2016 ft | 13 kts | 168° |
| 2026-04-25 10:40 | 17.23091 | 78.43256 | 2018 ft | 17 kts | 89° |
| 2026-04-25 10:40 | 17.23093 | 78.43398 | 2022 ft | 20 kts | 89° |
| 2026-04-25 10:41 | 17.23096 | 78.43562 | 2026 ft | 24 kts | 89° |
| 2026-04-25 10:41 | 17.23098 | 78.43745 | 2033 ft | 26 kts | 89° |
| 2026-04-25 10:41 | 17.23101 | 78.43946 | 2040 ft | 29 kts | 89° |
| 2026-04-25 10:41 | 17.23103 | 78.44168 | 2048 ft | 31 kts | 89° |
| 2026-04-25 10:42 | 17.23107 | 78.44415 | 2051 ft | 35 kts | 89° |
| 2026-04-25 10:42 | 17.23111 | 78.44692 | 2047 ft | 40 kts | 89° |
| 2026-04-25 10:42 | 17.23114 | 78.44977 | 2038 ft | 38 kts | 89° |
| 2026-04-25 10:42 | 17.23116 | 78.45229 | 2032 ft | 15 kts | 93° |
| 2026-04-25 10:43 | 17.23115 | 78.45238 | 2032 ft | 0 kts | 92° |
| 2026-04-25 10:43 | 17.23115 | 78.45240 | 2032 ft | 1 kts | 94° |
| 2026-04-25 10:43 | 17.23109 | 78.45277 | 2031 ft | 8 kts | 107° |
| 2026-04-25 10:43 | 17.23049 | 78.45319 | 2032 ft | 12 kts | 174° |
| 2026-04-25 10:44 | 17.22958 | 78.45287 | 2034 ft | 15 kts | 220° |
| 2026-04-25 10:44 | 17.22915 | 78.45194 | 2036 ft | 0 kts | 265° |
| 2026-04-25 10:44 | 17.22913 | 78.45136 | 2036 ft | 35 kts | 268° |
| 2026-04-25 10:44 | 17.22904 | 78.44608 | 2045 ft | 108 kts | 269° |
| 2026-04-25 10:45 | 17.22891 | 78.43584 | 2058 ft | 169 kts | 269° |
| 2026-04-25 10:45 | 17.22882 | 78.42264 | 2517 ft | 189 kts | 269° |
| 2026-04-25 10:45 | 17.22854 | 78.40889 | 3264 ft | 196 kts | 262° |
| 2026-04-25 10:45 | 17.22350 | 78.39559 | 3889 ft | 207 kts | 232° |
| 2026-04-25 10:46 | 17.21225 | 78.38580 | 4561 ft | 218 kts | 205° |
| 2026-04-25 10:46 | 17.19754 | 78.38224 | 5217 ft | 228 kts | 179° |
| 2026-04-25 10:46 | 17.18180 | 78.38579 | 5875 ft | 239 kts | 159° |
| 2026-04-25 10:46 | 17.16490 | 78.39024 | 6042 ft | 271 kts | 167° |
| 2026-04-25 10:47 | 17.14703 | 78.39833 | 6099 ft | 284 kts | 151° |
| 2026-04-25 10:47 | 17.13189 | 78.41074 | 6940 ft | 282 kts | 131° |
| 2026-04-25 10:47 | 17.12113 | 78.42787 | 7737 ft | 285 kts | 120° |
| 2026-04-25 10:47 | 17.11097 | 78.44570 | 8463 ft | 289 kts | 121° |
| 2026-04-25 10:48 | 17.10064 | 78.46353 | 9189 ft | 292 kts | 121° |
| 2026-04-25 10:48 | 17.09017 | 78.48152 | 9885 ft | 295 kts | 121° |
| 2026-04-25 10:48 | 17.07946 | 78.49987 | 10564 ft | 298 kts | 121° |
| 2026-04-25 10:48 | 17.06863 | 78.51845 | 11221 ft | 301 kts | 121° |
| 2026-04-25 10:49 | 17.05773 | 78.53713 | 11856 ft | 304 kts | 121° |
| 2026-04-25 10:49 | 17.04663 | 78.55616 | 12479 ft | 313 kts | 121° |
| 2026-04-25 10:49 | 17.03557 | 78.57512 | 13510 ft | 309 kts | 122° |
| 2026-04-25 10:49 | 17.02428 | 78.59429 | 14271 ft | 314 kts | 125° |
| 2026-04-25 10:50 | 17.00975 | 78.61124 | 15074 ft | 316 kts | 137° |
| 2026-04-25 10:50 | 16.99363 | 78.62663 | 15897 ft | 317 kts | 139° |
| 2026-04-25 10:50 | 16.97720 | 78.64213 | 16665 ft | 320 kts | 139° |
| 2026-04-25 10:50 | 16.96173 | 78.65670 | 17373 ft | 322 kts | 139° |
| 2026-04-25 10:51 | 16.94525 | 78.67220 | 18101 ft | 324 kts | 139° |
| 2026-04-25 10:51 | 16.92839 | 78.68807 | 18818 ft | 327 kts | 139° |
| 2026-04-25 10:51 | 16.91179 | 78.70370 | 19503 ft | 329 kts | 139° |
| 2026-04-25 10:51 | 16.89535 | 78.71916 | 20157 ft | 331 kts | 139° |
| 2026-04-25 10:52 | 16.87805 | 78.73543 | 20830 ft | 333 kts | 139° |
| 2026-04-25 10:52 | 16.86106 | 78.75141 | 21465 ft | 335 kts | 139° |
| 2026-04-25 10:52 | 16.84378 | 78.76766 | 22091 ft | 337 kts | 139° |
| 2026-04-25 10:52 | 16.82624 | 78.78413 | 22703 ft | 339 kts | 138° |
| 2026-04-25 10:53 | 16.80889 | 78.80045 | 23290 ft | 341 kts | 138° |
| 2026-04-25 10:53 | 16.79108 | 78.81717 | 23870 ft | 344 kts | 138° |
| 2026-04-25 10:53 | 16.77359 | 78.83360 | 24421 ft | 346 kts | 138° |
| 2026-04-25 10:53 | 16.75570 | 78.85040 | 24966 ft | 348 kts | 138° |
| 2026-04-25 10:54 | 16.73773 | 78.86726 | 25494 ft | 350 kts | 137° |
| 2026-04-25 10:54 | 16.72586 | 78.87839 | 25833 ft | 351 kts | 137° |
| 2026-04-25 10:54 | 16.70165 | 78.90112 | 26501 ft | 354 kts | 137° |
| 2026-04-25 10:54 | 16.68313 | 78.91848 | 26992 ft | 357 kts | 137° |
| 2026-04-25 10:55 | 16.66467 | 78.93579 | 27441 ft | 358 kts | 137° |
| 2026-04-25 10:55 | 16.64627 | 78.95304 | 27825 ft | 361 kts | 137° |
| 2026-04-25 10:55 | 16.62760 | 78.97053 | 28232 ft | 363 kts | 136° |
| 2026-04-25 10:55 | 16.60886 | 78.98810 | 28612 ft | 365 kts | 136° |
| 2026-04-25 10:56 | 16.59017 | 79.00561 | 28988 ft | 367 kts | 136° |
| 2026-04-25 10:56 | 16.57123 | 79.02335 | 29353 ft | 369 kts | 136° |
| 2026-04-25 10:56 | 16.55233 | 79.04104 | 29708 ft | 371 kts | 136° |
| 2026-04-25 10:56 | 16.53333 | 79.05881 | 30054 ft | 373 kts | 136° |
| 2026-04-25 10:57 | 16.51417 | 79.07674 | 30392 ft | 375 kts | 136° |
| 2026-04-25 10:57 | 16.49491 | 79.09476 | 30722 ft | 377 kts | 136° |
| 2026-04-25 10:57 | 16.47557 | 79.11285 | 31044 ft | 379 kts | 135° |
| 2026-04-25 10:57 | 16.45652 | 79.13065 | 31352 ft | 381 kts | 135° |
| 2026-04-25 10:58 | 16.43752 | 79.14841 | 31651 ft | 383 kts | 135° |
| 2026-04-25 10:58 | 16.41814 | 79.16652 | 31947 ft | 385 kts | 135° |
| 2026-04-25 10:58 | 16.39882 | 79.18456 | 32235 ft | 387 kts | 135° |
| 2026-04-25 10:58 | 16.37915 | 79.20294 | 32519 ft | 389 kts | 135° |
| 2026-04-25 10:59 | 16.35925 | 79.22151 | 32796 ft | 390 kts | 135° |
| 2026-04-25 10:59 | 16.32006 | 79.25812 | 32906 ft | 405 kts | 135° |
| 2026-04-25 11:00 | 16.27834 | 79.29704 | 32948 ft | 422 kts | 135° |
| 2026-04-25 11:00 | 16.23636 | 79.33617 | 32966 ft | 440 kts | 135° |
| 2026-04-25 11:01 | 16.19010 | 79.37926 | 32977 ft | 458 kts | 135° |
| 2026-04-25 11:01 | 16.14199 | 79.42403 | 32888 ft | 469 kts | 135° |
| 2026-04-25 11:02 | 16.09355 | 79.46907 | 32881 ft | 466 kts | 135° |
| 2026-04-25 11:02 | 16.04564 | 79.51361 | 32881 ft | 466 kts | 135° |
| 2026-04-25 11:03 | 15.99768 | 79.55817 | 32880 ft | 466 kts | 135° |
| 2026-04-25 11:03 | 15.94946 | 79.60293 | 32879 ft | 466 kts | 135° |
| 2026-04-25 11:04 | 15.90126 | 79.64765 | 32879 ft | 466 kts | 135° |